KTUS/TUS METAR and TAF weather

Enter ICAO airport designator
Station Type Date Time Source
KTUS METAR 2021/05/14 06:53 UTC NOAA

KTUS 140653Z 17006KT 10SM CLR 25/M08 A3000 RMK AO2 SLP107 T02501083 403780172


Station Type Date Time Source
KTUS Decoded METAR 2021/05/14 06:53 UTC NOAA

TUCSON INTERNATIONAL AIRPORT , AZ, United States (KTUS) 32-08N 110-57W 786M
May 14, 2021 - 02:53 AM EDT / 2021.05.14 0653 UTC
Wind: from the S (170 degrees) at 7 MPH (6 KT):0
Visibility: 10 mile(s):0
Sky conditions: clear
Temperature: 77.0 F (25.0 C)
Dew Point: 17.1 F (-8.3 C)
Relative Humidity: 10%
Pressure (altimeter): 30 in. Hg (1015 hPa)
ob: KTUS 140653Z 17006KT 10SM CLR 25/M08 A3000 RMK AO2 SLP107 T02501083 403780172
cycle: 7

Station Type Date Time Source
KTUS TAF 2021/05/14 06:22 UTC NOAA

TAF KTUS 140520Z 1406/1506 16006KT P6SM SKC
FM142000 26013G21KT P6SM FEW150
FM150400 27007KT P6SM FEW150

Example: see airport list